Time;durP1;ratioP1;P1;durP2;ratioP2;P2;SDS_P1;SDS_P2;PMS_P1;PMS_P2;Temp;Humidity;BMP_temperature;BMP_pressure;BME280_temperature;BME280_humidity;BME280_pressure;Samples;Min_cycle;Max_cycle;Signal;HPM_P1;HPM_P2
2024/04/05 00:01:33;;;;;;;30.33;17.10;;;10.30;99.90;;;;;;4986775;28;20133;-72
2024/04/05 00:04:04;;;;;;;32.63;18.08;;;10.30;99.90;;;;;;4991966;28;20058;-73
2024/04/05 00:06:30;;;;;;;28.02;17.63;;;10.30;99.90;;;;;;4997552;28;20440;-72
2024/04/05 00:08:56;;;;;;;31.67;18.20;;;10.30;99.90;;;;;;5001858;28;20034;-71
2024/04/05 00:11:22;;;;;;;22.65;17.65;;;10.30;99.90;;;;;;4994491;28;20553;-70
2024/04/05 00:13:49;;;;;;;34.85;17.75;;;10.30;99.90;;;;;;4999491;28;20042;-70
2024/04/05 00:16:16;;;;;;;29.23;17.30;;;10.30;99.90;;;;;;5000382;28;20046;-72
2024/04/05 00:18:42;;;;;;;36.03;17.95;;;10.30;99.90;;;;;;4984884;28;20053;-70
2024/04/05 00:21:08;;;;;;;30.00;18.10;;;10.40;99.90;;;;;;4980492;28;20045;-71
2024/04/05 00:23:35;;;;;;;30.00;18.00;;;10.40;99.90;;;;;;4982247;28;20038;-71
2024/04/05 00:26:03;;;;;;;29.63;18.17;;;10.40;99.90;;;;;;4987192;28;20413;-71
2024/04/05 00:28:29;;;;;;;29.88;17.27;;;10.40;99.90;;;;;;4980291;28;20054;-72
2024/04/05 00:30:55;;;;;;;32.05;18.70;;;10.40;99.90;;;;;;4983316;28;20067;-72
2024/04/05 00:33:22;;;;;;;22.38;18.00;;;10.40;99.90;;;;;;4997028;28;20042;-72
2024/04/05 00:35:53;;;;;;;29.85;18.48;;;10.40;99.90;;;;;;5008355;28;20493;-71
2024/04/05 00:38:20;;;;;;;25.85;17.70;;;10.50;99.90;;;;;;4987568;28;20061;-71
2024/04/05 00:40:47;;;;;;;32.28;18.40;;;10.40;99.90;;;;;;5003986;28;20042;-71
2024/04/05 00:43:13;;;;;;;26.88;18.13;;;10.40;99.90;;;;;;4985601;28;20061;-70
2024/04/05 00:45:40;;;;;;;30.70;18.70;;;10.40;99.90;;;;;;4976895;28;20576;-70
2024/04/05 00:48:08;;;;;;;26.92;17.70;;;10.40;99.90;;;;;;4997104;28;20109;-71
2024/04/05 00:50:36;;;;;;;26.58;17.50;;;10.40;99.90;;;;;;4991925;28;20155;-71
2024/04/05 00:53:02;;;;;;;28.80;18.48;;;10.40;99.90;;;;;;5006703;28;20550;-71
2024/04/05 00:55:30;;;;;;;26.00;17.48;;;10.40;99.90;;;;;;4976694;28;21239;-71
2024/04/05 00:58:01;;;;;;;28.90;17.50;;;10.50;99.90;;;;;;4987208;28;20073;-71
2024/04/05 01:00:28;;;;;;;24.45;18.15;;;10.50;99.90;;;;;;4999072;28;20691;-71
2024/04/05 01:02:56;;;;;;;26.70;18.27;;;10.50;99.90;;;;;;4997600;28;20034;-71
2024/04/05 01:05:22;;;;;;;24.55;17.55;;;10.50;99.90;;;;;;5022935;28;20052;-70
2024/04/05 01:07:51;;;;;;;29.67;18.17;;;10.60;99.90;;;;;;4998509;28;20037;-71
2024/04/05 01:10:18;;;;;;;27.85;18.88;;;10.70;99.90;;;;;;5000316;28;20104;-72
2024/04/05 01:12:44;;;;;;;28.00;18.25;;;10.80;99.90;;;;;;4994715;28;20492;-71
2024/04/05 01:15:11;;;;;;;27.33;18.35;;;10.80;99.90;;;;;;4992249;28;20129;-70
2024/04/05 01:17:37;;;;;;;29.45;18.63;;;10.90;99.90;;;;;;4982862;28;20062;-71
2024/04/05 01:20:05;;;;;;;35.28;19.17;;;11.00;99.90;;;;;;5003353;28;20096;-71
2024/04/05 01:22:40;;;;;;;26.38;18.77;;;11.00;99.90;;;;;;4994427;28;20726;-71
2024/04/05 01:25:07;;;;;;;22.20;18.10;;;11.10;99.90;;;;;;4978556;28;20056;-72
2024/04/05 01:27:33;;;;;;;26.00;18.92;;;11.20;99.90;;;;;;4962692;28;20053;-71
2024/04/05 01:29:59;;;;;;;34.60;20.13;;;11.20;99.90;;;;;;4993319;28;20073;-71
2024/04/05 01:32:25;;;;;;;31.08;19.17;;;11.20;99.90;;;;;;4983092;28;20038;-70
2024/04/05 01:34:51;;;;;;;24.75;18.17;;;11.30;99.90;;;;;;4975051;28;20052;-71
2024/04/05 01:37:18;;;;;;;32.22;19.38;;;11.30;99.90;;;;;;4974484;28;20538;-71
2024/04/05 01:39:44;;;;;;;25.17;17.38;;;11.20;99.90;;;;;;4979275;28;20567;-72
2024/04/05 01:42:10;;;;;;;24.75;17.85;;;11.10;99.90;;;;;;4998416;28;20038;-70
2024/04/05 01:44:37;;;;;;;31.48;17.65;;;11.00;99.90;;;;;;5009192;28;20054;-71
2024/04/05 01:47:03;;;;;;;29.73;17.55;;;11.10;99.90;;;;;;4991364;28;21119;-71
2024/04/05 01:49:29;;;;;;;26.85;17.38;;;11.20;99.90;;;;;;4991689;28;20052;-70
2024/04/05 01:51:55;;;;;;;27.60;17.50;;;11.30;99.90;;;;;;4996559;28;20038;-70
2024/04/05 01:54:21;;;;;;;26.65;17.10;;;11.30;99.90;;;;;;4973537;28;20580;-70
2024/04/05 01:56:47;;;;;;;27.88;17.63;;;11.30;99.90;;;;;;5001125;28;20050;-69
2024/04/05 01:59:14;;;;;;;26.35;17.17;;;11.30;99.90;;;;;;4987593;28;20107;-70
2024/04/05 02:01:41;;;;;;;29.05;17.33;;;11.30;99.90;;;;;;5002317;28;20045;-69
2024/04/05 02:04:07;;;;;;;34.05;17.90;;;11.30;99.90;;;;;;4990791;28;20594;-68
2024/04/05 02:06:33;;;;;;;30.05;17.65;;;11.40;99.90;;;;;;4993111;28;20034;-71
2024/04/05 02:08:59;;;;;;;30.20;17.75;;;11.50;99.90;;;;;;4990631;28;20441;-69
2024/04/05 02:11:27;;;;;;;33.38;17.60;;;11.50;99.90;;;;;;4977964;28;20033;-70
2024/04/05 02:13:53;;;;;;;23.83;16.92;;;11.50;99.90;;;;;;4971434;28;20061;-70
2024/04/05 02:16:19;;;;;;;24.75;16.52;;;11.60;99.90;;;;;;4994756;28;20493;-70
2024/04/05 02:18:46;;;;;;;22.92;16.92;;;11.50;99.90;;;;;;4983903;28;20061;-70
2024/04/05 02:21:11;;;;;;;24.65;17.50;;;11.50;99.90;;;;;;5013284;28;20054;-69
2024/04/05 02:23:37;;;;;;;25.67;17.63;;;11.50;99.90;;;;;;4984598;28;20042;-70
2024/04/05 02:26:03;;;;;;;33.30;17.20;;;11.40;99.90;;;;;;4982355;28;20046;-72
2024/04/05 02:28:30;;;;;;;26.77;18.10;;;11.30;99.90;;;;;;4987581;28;20054;-69
2024/04/05 02:30:56;;;;;;;26.85;16.48;;;11.30;99.90;;;;;;4998733;28;20088;-70
2024/04/05 02:33:23;;;;;;;21.40;16.70;;;11.20;99.90;;;;;;4982101;28;20050;-69
2024/04/05 02:35:58;;;;;;;26.95;17.63;;;11.20;99.90;;;;;;4978598;28;20049;-69
2024/04/05 02:38:24;;;;;;;24.65;17.45;;;11.10;99.90;;;;;;4977929;28;20050;-70
2024/04/05 02:40:54;;;;;;;27.10;17.20;;;11.10;99.90;;;;;;4974474;28;20046;-69
2024/04/05 02:43:21;;;;;;;26.60;16.63;;;11.10;99.90;;;;;;4979199;28;20429;-70
2024/04/05 02:45:47;;;;;;;20.58;16.27;;;11.10;99.90;;;;;;4976319;28;20045;-69
2024/04/05 02:48:13;;;;;;;25.23;17.42;;;11.10;99.90;;;;;;4987890;28;20049;-71
2024/04/05 02:50:39;;;;;;;17.70;15.90;;;11.20;99.90;;;;;;5007533;28;20038;-69
2024/04/05 02:53:05;;;;;;;25.98;16.75;;;11.10;99.90;;;;;;4978621;28;21293;-69
2024/04/05 02:55:32;;;;;;;26.25;17.17;;;11.20;99.90;;;;;;4986772;28;20056;-69
2024/04/05 02:57:58;;;;;;;24.55;17.30;;;11.20;99.90;;;;;;4986913;28;20540;-70
2024/04/05 03:00:24;;;;;;;22.17;16.60;;;11.20;99.90;;;;;;4991734;28;20042;-67
2024/04/05 03:02:50;;;;;;;26.55;16.55;;;11.20;99.90;;;;;;4991321;28;20034;-68
2024/04/05 03:05:16;;;;;;;26.95;16.30;;;11.10;99.90;;;;;;4986481;28;20052;-70
2024/04/05 03:07:43;;;;;;;21.98;16.17;;;11.10;99.90;;;;;;4994776;28;20041;-70
2024/04/05 03:10:09;;;;;;;20.65;15.88;;;11.00;99.90;;;;;;4993740;28;20045;-69
2024/04/05 03:12:36;;;;;;;23.25;16.67;;;10.90;99.90;;;;;;4978000;28;20053;-69
2024/04/05 03:15:02;;;;;;;26.77;17.27;;;10.90;99.90;;;;;;4971731;28;20041;-68
2024/04/05 03:17:28;;;;;;;26.85;17.50;;;10.80;99.90;;;;;;4992469;28;20552;-69
2024/04/05 03:19:54;;;;;;;21.95;16.05;;;10.80;99.90;;;;;;5010161;28;20157;-69
2024/04/05 03:22:20;;;;;;;19.67;15.15;;;10.70;99.90;;;;;;4960045;28;20129;-69
2024/04/05 03:24:47;;;;;;;27.15;17.08;;;10.70;99.90;;;;;;4976705;28;20049;-69
2024/04/05 03:27:13;;;;;;;20.25;14.13;;;10.60;99.90;;;;;;4970470;28;20042;-68
2024/04/05 03:29:39;;;;;;;22.75;15.57;;;10.60;99.90;;;;;;4978115;28;20088;-70
2024/04/05 03:32:07;;;;;;;45.42;16.45;;;10.60;99.90;;;;;;4980223;28;20084;-69
2024/04/05 03:34:33;;;;;;;20.55;14.82;;;10.50;99.90;;;;;;4977516;28;21059;-69
2024/04/05 03:36:59;;;;;;;26.88;14.93;;;10.40;99.90;;;;;;5007634;28;20056;-69
2024/04/05 03:39:25;;;;;;;20.92;14.75;;;10.40;99.90;;;;;;4997473;28;20050;-68
2024/04/05 03:41:51;;;;;;;26.80;15.45;;;10.30;99.90;;;;;;4982593;28;20052;-68
2024/04/05 03:44:17;;;;;;;22.27;13.95;;;10.40;99.90;;;;;;5016871;28;20050;-70
2024/04/05 03:46:45;;;;;;;21.98;13.35;;;10.50;99.90;;;;;;4976334;28;20061;-69
2024/04/05 03:49:11;;;;;;;22.27;14.32;;;10.50;99.90;;;;;;4997250;28;20042;-69
2024/04/05 03:51:38;;;;;;;23.08;13.60;;;10.70;99.90;;;;;;4985729;28;20041;-69
2024/04/05 03:54:04;;;;;;;25.42;14.38;;;10.80;99.90;;;;;;5013000;28;20042;-68
2024/04/05 03:56:30;;;;;;;24.60;13.45;;;10.90;99.90;;;;;;4980313;28;20445;-67
2024/04/05 03:58:56;;;;;;;22.25;13.80;;;11.10;99.90;;;;;;4978064;28;20612;-69
2024/04/05 04:01:23;;;;;;;27.00;13.57;;;11.20;99.90;;;;;;5001243;28;20042;-68
2024/04/05 04:03:49;;;;;;;30.00;15.18;;;11.30;99.90;;;;;;5008244;28;20597;-69
2024/04/05 04:06:15;;;;;;;23.92;13.23;;;11.40;99.90;;;;;;4991639;28;20505;-68
2024/04/05 04:08:41;;;;;;;25.38;13.25;;;11.40;99.90;;;;;;4991202;28;20042;-68
2024/04/05 04:11:07;;;;;;;24.45;13.75;;;11.50;99.90;;;;;;4996745;28;20689;-70
2024/04/05 04:13:33;;;;;;;29.05;13.63;;;11.50;99.90;;;;;;4964436;28;20054;-69
2024/04/05 04:16:00;;;;;;;22.13;11.82;;;11.60;99.90;;;;;;4982555;28;20050;-69
2024/04/05 04:18:27;;;;;;;27.60;13.35;;;11.70;99.90;;;;;;4978269;28;20049;-70
2024/04/05 04:20:54;;;;;;;22.52;13.90;;;11.70;99.90;;;;;;4981502;28;20042;-68
2024/04/05 04:23:20;;;;;;;23.77;13.65;;;11.80;99.90;;;;;;5007365;28;20520;-70
2024/04/05 04:25:46;;;;;;;24.63;13.85;;;11.70;99.90;;;;;;4964090;28;20557;-70
2024/04/05 04:28:12;;;;;;;23.45;14.25;;;11.70;99.90;;;;;;4975991;28;20128;-70
2024/04/05 04:30:39;;;;;;;21.27;15.00;;;11.70;99.90;;;;;;4996648;28;20049;-70
2024/04/05 04:33:05;;;;;;;23.42;15.30;;;11.70;99.90;;;;;;5001516;28;20493;-71
2024/04/05 04:35:31;;;;;;;25.52;14.68;;;11.70;99.90;;;;;;5005163;28;20095;-71
2024/04/05 04:37:57;;;;;;;29.13;14.10;;;11.70;99.90;;;;;;4976256;28;20049;-71
2024/04/05 04:40:23;;;;;;;24.35;13.63;;;11.70;99.90;;;;;;5014488;28;20536;-71
2024/04/05 04:42:49;;;;;;;22.92;13.57;;;11.70;99.90;;;;;;5015471;28;20045;-71
2024/04/05 04:45:16;;;;;;;26.25;14.27;;;11.70;99.90;;;;;;5027217;28;20116;-70
2024/04/05 04:47:42;;;;;;;22.92;13.02;;;11.70;99.90;;;;;;4963865;28;20045;-70
2024/04/05 04:50:08;;;;;;;17.50;13.02;;;11.70;99.90;;;;;;4974260;28;20037;-71
2024/04/05 04:52:37;;;;;;;16.63;12.70;;;11.70;99.90;;;;;;4986349;28;20057;-71
2024/04/05 04:55:05;;;;;;;18.65;13.18;;;11.80;99.90;;;;;;4982070;28;20056;-69
2024/04/05 04:57:32;;;;;;;22.20;13.30;;;11.80;99.90;;;;;;4998292;28;20037;-69
2024/04/05 04:59:58;;;;;;;24.02;13.75;;;11.80;99.90;;;;;;4976705;28;20951;-70
2024/04/05 05:02:24;;;;;;;22.45;14.20;;;11.90;99.90;;;;;;4979390;28;20140;-71
2024/04/05 05:04:51;;;;;;;25.45;14.20;;;12.10;99.90;;;;;;4995279;28;20325;-71
2024/04/05 05:07:18;;;;;;;29.85;15.68;;;12.10;99.90;;;;;;5000938;28;20449;-69
2024/04/05 05:09:44;;;;;;;18.85;13.23;;;12.10;99.90;;;;;;5013664;28;20279;-71
2024/04/05 05:12:10;;;;;;;21.50;13.80;;;12.20;99.90;;;;;;4994510;28;20363;-69
2024/04/05 05:14:36;;;;;;;20.55;14.43;;;12.20;99.90;;;;;;4996798;28;20045;-70
2024/04/05 05:17:05;;;;;;;19.63;14.48;;;12.30;99.90;;;;;;4977993;28;20056;-69
2024/04/05 05:19:32;;;;;;;20.48;14.10;;;12.30;99.90;;;;;;4992639;28;20057;-70
2024/04/05 05:21:58;;;;;;;20.33;14.35;;;12.40;99.90;;;;;;4978067;28;20042;-69
2024/04/05 05:24:24;;;;;;;16.83;14.27;;;12.50;99.90;;;;;;5016356;28;20045;-68
2024/04/05 05:26:50;;;;;;;18.10;13.95;;;12.50;99.90;;;;;;4994437;28;20034;-71
2024/04/05 05:29:16;;;;;;;19.08;14.05;;;12.50;99.90;;;;;;4975270;28;20056;-70
2024/04/05 05:31:42;;;;;;;18.48;14.52;;;12.50;99.90;;;;;;4994626;28;20076;-70
2024/04/05 05:34:08;;;;;;;18.40;14.30;;;12.50;99.90;;;;;;4982515;28;20041;-71
2024/04/05 05:36:34;;;;;;;27.00;16.02;;;12.50;99.90;;;;;;4997808;28;20300;-71
2024/04/05 05:39:01;;;;;;;24.15;17.67;;;12.50;99.90;;;;;;4981080;28;20087;-70
2024/04/05 05:41:27;;;;;;;25.98;17.98;;;12.50;99.90;;;;;;4994440;28;20048;-69
2024/04/05 05:43:53;;;;;;;22.15;16.90;;;12.50;99.90;;;;;;4977012;28;20048;-71
2024/04/05 05:46:19;;;;;;;19.20;17.00;;;12.50;99.90;;;;;;4980147;28;20046;-70
2024/04/05 05:48:45;;;;;;;18.35;16.70;;;12.40;99.90;;;;;;4978539;28;20049;-70
2024/04/05 05:51:11;;;;;;;19.70;17.33;;;12.40;99.90;;;;;;4998029;28;20128;-70
2024/04/05 05:53:38;;;;;;;22.10;17.20;;;12.40;99.90;;;;;;4958533;28;20057;-70
2024/04/05 05:56:04;;;;;;;19.88;16.60;;;12.40;99.90;;;;;;4995807;28;20051;-70
2024/04/05 05:58:31;;;;;;;22.00;18.38;;;12.40;99.90;;;;;;4992614;28;20053;-71
2024/04/05 06:00:57;;;;;;;19.15;17.48;;;12.50;99.90;;;;;;4990496;28;20124;-70
2024/04/05 06:03:23;;;;;;;25.67;18.33;;;12.40;99.90;;;;;;5015442;28;20068;-70
2024/04/05 06:05:52;;;;;;;19.75;15.75;;;12.40;99.90;;;;;;5001767;28;20966;-71
2024/04/05 06:08:18;;;;;;;20.75;15.73;;;12.40;99.90;;;;;;4982011;28;20116;-70
2024/04/05 06:10:55;;;;;;;22.88;17.80;;;12.50;99.90;;;;;;4964730;28;20060;-69
2024/04/05 06:13:22;;;;;;;23.10;17.13;;;12.50;99.90;;;;;;4976785;28;20128;-70
2024/04/05 06:15:57;;;;;;;18.13;16.27;;;12.60;99.90;;;;;;4982210;28;20083;-70
2024/04/05 06:18:26;;;;;;;18.33;16.77;;;12.60;99.90;;;;;;4984350;28;20045;-71
2024/04/05 06:20:53;;;;;;;20.80;17.20;;;12.70;99.90;;;;;;4996858;28;20543;-70
2024/04/05 06:23:19;;;;;;;19.25;17.60;;;12.80;99.90;;;;;;5000337;28;20579;-69
2024/04/05 06:25:58;;;;;;;18.55;16.45;;;12.80;99.90;;;;;;4981916;28;20053;-69
2024/04/05 06:28:24;;;;;;;19.10;17.10;;;12.80;99.90;;;;;;4994342;28;20051;-69
2024/04/05 06:30:51;;;;;;;19.42;17.35;;;12.80;99.90;;;;;;5012460;28;20720;-71
2024/04/05 06:33:18;;;;;;;26.35;18.88;;;12.80;99.90;;;;;;4984096;28;20574;-70
2024/04/05 06:35:45;;;;;;;20.05;18.30;;;12.80;99.90;;;;;;4980510;28;20057;-70
2024/04/05 06:38:11;;;;;;;20.40;18.23;;;12.80;99.90;;;;;;4980945;28;20042;-70
2024/04/05 06:40:39;;;;;;;24.50;17.55;;;12.80;99.90;;;;;;4977204;28;20057;-70
2024/04/05 06:43:08;;;;;;;20.98;17.88;;;12.80;99.90;;;;;;4981734;28;20038;-70
2024/04/05 06:45:34;;;;;;;19.20;17.20;;;12.80;99.90;;;;;;4985752;28;20045;-71
2024/04/05 06:48:01;;;;;;;21.92;17.10;;;12.80;99.90;;;;;;5007068;28;20125;-70
2024/04/05 06:50:31;;;;;;;27.58;20.40;;;12.80;99.90;;;;;;5012506;28;20050;-70
2024/04/05 06:52:59;;;;;;;27.42;18.75;;;12.70;99.90;;;;;;4982782;28;20049;-70
2024/04/05 06:55:26;;;;;;;22.55;17.85;;;12.70;99.90;;;;;;4983094;28;20117;-69
2024/04/05 06:57:53;;;;;;;17.98;15.95;;;12.70;99.90;;;;;;4980525;28;20679;-70
2024/04/05 07:00:19;;;;;;;22.90;17.38;;;12.70;99.90;;;;;;4995934;28;20054;-69
2024/04/05 07:02:46;;;;;;;20.83;16.42;;;12.70;99.90;;;;;;4999334;28;20045;-69
2024/04/05 07:05:11;;;;;;;19.35;15.82;;;12.60;99.90;;;;;;5008322;28;20160;-72
2024/04/05 07:07:37;;;;;;;21.02;16.17;;;12.70;99.90;;;;;;4980839;28;20045;-70
2024/04/05 07:10:04;;;;;;;22.98;15.75;;;12.70;99.90;;;;;;4992195;28;20742;-70
2024/04/05 07:12:31;;;;;;;19.70;13.93;;;12.60;99.90;;;;;;4992069;28;20042;-72
2024/04/05 07:14:57;;;;;;;20.02;13.27;;;12.60;99.90;;;;;;4967687;28;20040;-70
2024/04/05 07:17:23;;;;;;;21.55;12.73;;;12.60;99.90;;;;;;4975988;28;20072;-71
2024/04/05 07:19:49;;;;;;;17.73;12.20;;;12.60;99.90;;;;;;4980374;28;20041;-71
2024/04/05 07:22:16;;;;;;;17.45;11.90;;;12.50;99.90;;;;;;4978188;28;20061;-71
2024/04/05 07:24:43;;;;;;;23.40;12.20;;;12.50;99.90;;;;;;4983448;28;20168;-71
2024/04/05 07:27:10;;;;;;;17.70;12.07;;;12.50;99.90;;;;;;4971580;28;20286;-72
2024/04/05 07:29:37;;;;;;;11.50;10.32;;;12.40;99.90;;;;;;5003569;28;20068;-72
2024/04/05 07:32:04;;;;;;;25.38;11.10;;;12.30;99.90;;;;;;4982659;28;20037;-70
2024/04/05 07:34:31;;;;;;;18.50;9.05;;;12.30;99.90;;;;;;4982568;28;20061;-71
2024/04/05 07:36:57;;;;;;;22.38;10.88;;;12.30;99.90;;;;;;4998416;28;20381;-71
2024/04/05 07:39:23;;;;;;;23.75;9.07;;;12.30;99.90;;;;;;4980926;28;20050;-70
2024/04/05 07:41:49;;;;;;;14.85;8.10;;;12.30;99.90;;;;;;4979225;28;20042;-72
2024/04/05 07:44:18;;;;;;;19.52;9.45;;;12.30;99.90;;;;;;4996092;28;20169;-72
2024/04/05 07:46:44;;;;;;;13.57;8.35;;;12.20;99.90;;;;;;4989243;28;20049;-71
2024/04/05 07:49:10;;;;;;;13.45;7.97;;;12.20;99.90;;;;;;4979179;28;20124;-71
2024/04/05 07:51:36;;;;;;;17.70;8.63;;;12.30;99.90;;;;;;4999995;28;20112;-72
2024/04/05 07:54:02;;;;;;;12.05;7.93;;;12.20;99.90;;;;;;4979632;28;20046;-70
2024/04/05 07:56:28;;;;;;;19.45;7.88;;;12.20;99.90;;;;;;4995593;28;20042;-71
2024/04/05 07:58:54;;;;;;;16.67;8.02;;;12.20;99.90;;;;;;4989654;28;20075;-71
2024/04/05 08:01:21;;;;;;;16.48;8.07;;;12.20;99.90;;;;;;4993925;28;20054;-71
2024/04/05 08:03:47;;;;;;;13.77;7.38;;;12.40;99.90;;;;;;5003115;28;20096;-71
2024/04/05 08:06:13;;;;;;;14.80;8.68;;;12.50;99.90;;;;;;5010200;28;20042;-72
2024/04/05 08:08:40;;;;;;;14.68;9.25;;;12.70;99.90;;;;;;4983479;28;20077;-72
2024/04/05 08:11:06;;;;;;;20.17;9.75;;;12.80;99.90;;;;;;4978042;28;20030;-72
2024/04/05 08:13:32;;;;;;;13.27;9.15;;;12.90;99.90;;;;;;4966252;28;20038;-71
2024/04/05 08:15:59;;;;;;;15.30;9.80;;;12.80;99.90;;;;;;5009584;28;20718;-72
2024/04/05 08:18:24;;;;;;;18.02;10.32;;;12.80;99.90;;;;;;4995730;28;20030;-72
2024/04/05 08:20:50;;;;;;;15.20;10.00;;;12.70;99.90;;;;;;5001448;28;20507;-71
2024/04/05 08:23:16;;;;;;;16.42;10.45;;;12.80;99.90;;;;;;4979772;28;20049;-71
2024/04/05 08:25:42;;;;;;;17.25;9.90;;;13.00;99.90;;;;;;5019147;28;20521;-72
2024/04/05 08:28:08;;;;;;;13.27;8.45;;;13.00;99.90;;;;;;4995507;28;20046;-71
2024/04/05 08:30:34;;;;;;;15.85;10.88;;;13.10;99.90;;;;;;4982891;28;20042;-71
2024/04/05 08:33:03;;;;;;;11.80;10.70;;;13.20;99.90;;;;;;4984194;28;20313;-70
2024/04/05 08:35:30;;;;;;;16.80;11.90;;;13.20;99.90;;;;;;4997114;28;20038;-72
2024/04/05 08:38:03;;;;;;;16.23;11.38;;;13.20;99.90;;;;;;4989072;28;20042;-72
2024/04/05 08:40:29;;;;;;;14.60;9.43;;;13.20;99.90;;;;;;4999381;28;20076;-71
2024/04/05 08:43:00;;;;;;;18.35;12.90;;;13.30;99.90;;;;;;4981674;28;20077;-71
2024/04/05 08:45:33;;;;;;;17.38;11.50;;;13.30;99.90;;;;;;4999714;28;20054;-72
2024/04/05 08:48:04;;;;;;;20.50;14.95;;;13.60;99.90;;;;;;4984122;28;20045;-70
2024/04/05 08:50:33;;;;;;;14.40;12.82;;;13.70;99.90;;;;;;4982438;28;20042;-70
2024/04/05 08:52:59;;;;;;;16.48;13.88;;;13.70;99.90;;;;;;5005511;28;20046;-71
2024/04/05 08:55:25;;;;;;;16.58;15.00;;;13.70;99.90;;;;;;4992062;28;21492;-69
2024/04/05 08:57:52;;;;;;;13.68;12.35;;;13.60;99.90;;;;;;4980009;28;20775;-68
2024/04/05 09:00:23;;;;;;;14.55;13.18;;;13.60;99.90;;;;;;4962040;28;20053;-71
2024/04/05 09:02:54;;;;;;;14.63;12.73;;;13.60;99.90;;;;;;5000887;28;20052;-71
2024/04/05 09:05:22;;;;;;;16.77;12.68;;;13.70;99.90;;;;;;5009684;28;20045;-69
2024/04/05 09:07:49;;;;;;;14.80;13.52;;;13.90;99.90;;;;;;5003202;28;20045;-70
2024/04/05 09:10:17;;;;;;;15.57;14.32;;;14.10;99.90;;;;;;4982803;28;20096;-70
2024/04/05 09:12:57;;;;;;;18.77;15.77;;;14.00;99.90;;;;;;4978470;28;20048;-71
2024/04/05 09:15:28;;;;;;;16.13;14.82;;;14.00;99.90;;;;;;4999091;28;20081;-70
2024/04/05 09:17:54;;;;;;;15.77;14.32;;;13.90;99.90;;;;;;5003762;28;20416;-71
2024/04/05 09:20:24;;;;;;;18.13;16.58;;;14.10;99.90;;;;;;4988748;28;20091;-70
2024/04/05 09:23:01;;;;;;;17.15;15.63;;;14.10;99.90;;;;;;5008309;28;20054;-70
2024/04/05 09:25:28;;;;;;;17.35;15.68;;;13.90;99.90;;;;;;4970864;28;21011;-69
2024/04/05 09:28:07;;;;;;;18.08;16.27;;;14.10;99.90;;;;;;4992208;28;20640;-69
2024/04/05 09:30:34;;;;;;;18.27;15.95;;;14.10;99.90;;;;;;5012638;28;20075;-71
2024/04/05 09:33:01;;;;;;;17.70;16.30;;;14.40;99.90;;;;;;4959470;28;20045;-70
2024/04/05 09:35:30;;;;;;;17.88;16.17;;;14.40;99.90;;;;;;4960481;28;20137;-71
2024/04/05 09:37:58;;;;;;;18.05;16.40;;;14.40;99.90;;;;;;4977915;28;20038;-69
2024/04/05 09:40:24;;;;;;;20.23;18.33;;;14.40;99.90;;;;;;4994146;28;20049;-69
2024/04/05 09:42:54;;;;;;;18.83;17.02;;;14.40;99.90;;;;;;4996961;28;20046;-71
2024/04/05 09:45:23;;;;;;;18.05;16.50;;;14.30;99.90;;;;;;4978601;28;20049;-67
2024/04/05 09:47:49;;;;;;;17.20;16.00;;;14.20;99.90;;;;;;4991348;28;20050;-69
2024/04/05 09:50:17;;;;;;;18.33;16.77;;;14.00;99.90;;;;;;4993477;28;20050;-69
2024/04/05 09:52:46;;;;;;;18.65;16.98;;;14.00;99.90;;;;;;4969129;28;20129;-67
2024/04/05 09:55:16;;;;;;;17.08;15.82;;;14.10;99.90;;;;;;4972672;28;20046;-67
2024/04/05 09:57:45;;;;;;;17.48;15.88;;;14.00;99.90;;;;;;4979985;28;20133;-68
2024/04/05 10:00:18;;;;;;;16.90;15.55;;;13.90;99.90;;;;;;4980028;28;20046;-66
2024/04/05 10:02:46;;;;;;;18.08;16.85;;;13.80;99.90;;;;;;4999527;28;20405;-69
2024/04/05 10:05:32;;;;;;;16.67;15.57;;;13.80;99.90;;;;;;4978453;28;20057;-68
2024/04/05 10:08:09;;;;;;;18.60;16.67;;;13.70;99.90;;;;;;5011188;28;20124;-68
2024/04/05 10:10:36;;;;;;;19.00;16.10;;;13.70;99.90;;;;;;4979829;28;20216;-68
2024/04/05 10:13:15;;;;;;;17.80;16.35;;;13.80;99.90;;;;;;4972949;28;20513;-69
2024/04/05 10:16:08;;;;;;;18.33;16.70;;;13.80;99.90;;;;;;4990861;28;20047;-69
2024/04/05 10:18:39;;;;;;;17.40;15.98;;;13.80;99.90;;;;;;4968698;28;20043;-69
2024/04/05 10:21:12;;;;;;;18.45;17.20;;;13.80;99.90;;;;;;4992451;28;20101;-70
2024/04/05 10:23:39;;;;;;;18.30;16.60;;;13.80;99.90;;;;;;4996989;28;20052;-68
2024/04/05 10:26:10;;;;;;;16.98;15.77;;;13.80;99.90;;;;;;4986069;28;20042;-66
2024/04/05 10:28:38;;;;;;;16.65;15.48;;;14.00;99.90;;;;;;4979439;28;20461;-69
2024/04/05 10:31:07;;;;;;;16.85;15.55;;;14.00;99.90;;;;;;4973609;28;20119;-69
2024/04/05 10:33:33;;;;;;;20.17;18.08;;;14.20;99.90;;;;;;4995823;28;20451;-70
2024/04/05 10:36:00;;;;;;;18.70;17.40;;;14.30;99.90;;;;;;4980376;28;20500;-69
2024/04/05 10:38:29;;;;;;;18.00;16.77;;;14.30;99.90;;;;;;4976850;28;20038;-70
2024/04/05 10:41:00;;;;;;;18.02;16.83;;;14.40;99.90;;;;;;4988794;28;20041;-70
2024/04/05 10:43:27;;;;;;;19.52;17.83;;;14.50;99.90;;;;;;4996678;28;20038;-68
2024/04/05 10:45:55;;;;;;;19.63;17.73;;;14.60;99.90;;;;;;4986838;28;20510;-70
2024/04/05 10:48:22;;;;;;;18.92;17.65;;;14.70;99.90;;;;;;4990559;28;20652;-69
2024/04/05 10:50:49;;;;;;;20.40;18.75;;;14.70;99.90;;;;;;4997331;28;20358;-69
2024/04/05 10:53:20;;;;;;;20.33;18.75;;;14.80;99.90;;;;;;4980638;28;20042;-68
2024/04/05 10:55:53;;;;;;;20.42;18.88;;;14.90;99.90;;;;;;5014671;28;20091;-70
2024/04/05 10:58:19;;;;;;;21.52;20.00;;;14.90;99.90;;;;;;4997890;28;20057;-70
2024/04/05 11:00:45;;;;;;;20.90;19.25;;;15.00;99.90;;;;;;5004683;28;20041;-68
2024/04/05 11:03:16;;;;;;;21.10;19.67;;;15.00;99.90;;;;;;4980871;28;20056;-68
2024/04/05 11:05:44;;;;;;;23.35;21.35;;;15.10;99.90;;;;;;4982270;28;20076;-68
2024/04/05 11:08:14;;;;;;;21.92;20.60;;;15.30;99.90;;;;;;5012634;28;20683;-68
2024/04/05 11:10:41;;;;;;;23.08;21.55;;;15.30;99.90;;;;;;4987574;28;20566;-68
2024/04/05 11:13:20;;;;;;;23.27;21.70;;;15.50;99.90;;;;;;4999355;28;20636;-68
2024/04/05 11:15:47;;;;;;;23.45;22.00;;;15.50;99.90;;;;;;4994910;28;20046;-69
2024/04/05 11:18:14;;;;;;;22.85;21.52;;;15.70;99.90;;;;;;4991037;28;20034;-69
2024/04/05 11:20:41;;;;;;;23.30;21.92;;;15.80;99.90;;;;;;4994087;28;20709;-68
2024/04/05 11:23:14;;;;;;;24.42;22.80;;;15.80;99.90;;;;;;4986032;28;20041;-68
2024/04/05 11:25:40;;;;;;;25.58;23.75;;;15.90;99.90;;;;;;4995183;28;20049;-68
2024/04/05 11:28:11;;;;;;;24.80;23.25;;;15.90;99.90;;;;;;4984508;28;20721;-69
2024/04/05 11:30:43;;;;;;;24.55;23.02;;;15.90;99.90;;;;;;4992481;28;20076;-69
2024/04/05 11:33:10;;;;;;;26.63;24.73;;;15.90;99.90;;;;;;4975563;28;20421;-70
2024/04/05 11:35:40;;;;;;;23.83;22.35;;;16.00;99.90;;;;;;4980905;28;20038;-69
2024/04/05 11:38:08;;;;;;;22.73;21.38;;;16.00;99.90;;;;;;4972129;28;20049;-68
2024/04/05 11:40:34;;;;;;;24.90;23.15;;;15.90;99.90;;;;;;4980276;28;20518;-70
2024/04/05 11:43:02;;;;;;;25.45;23.75;;;15.90;99.90;;;;;;4981784;28;20042;-67
2024/04/05 11:45:29;;;;;;;26.75;25.05;;;15.90;99.90;;;;;;4983389;28;20037;-69
2024/04/05 11:47:55;;;;;;;26.33;24.63;;;15.90;99.90;;;;;;4976707;28;20070;-68
2024/04/05 11:50:22;;;;;;;26.85;25.25;;;15.90;99.90;;;;;;4985738;28;20587;-67
2024/04/05 11:52:50;;;;;;;25.27;23.45;;;15.90;99.90;;;;;;5009578;28;20259;-69
2024/04/05 11:55:17;;;;;;;24.88;23.17;;;16.00;99.90;;;;;;4986865;28;20056;-65
2024/04/05 11:57:44;;;;;;;26.50;24.73;;;16.00;99.90;;;;;;5012739;28;20302;-68
2024/04/05 12:00:12;;;;;;;26.50;24.33;;;16.00;99.90;;;;;;4988475;28;20161;-68
2024/04/05 12:02:42;;;;;;;27.88;25.98;;;16.00;99.90;;;;;;5005217;28;20058;-68
2024/04/05 12:05:08;;;;;;;26.35;24.65;;;16.00;99.90;;;;;;4969381;28;20097;-66
2024/04/05 12:07:35;;;;;;;28.05;26.13;;;16.00;99.90;;;;;;4998182;28;20039;-67
2024/04/05 12:10:03;;;;;;;26.17;24.45;;;16.00;99.90;;;;;;5007355;28;20053;-68
2024/04/05 12:12:30;;;;;;;26.65;24.85;;;16.10;99.90;;;;;;4987817;28;20042;-68
2024/04/05 12:14:58;;;;;;;24.13;22.27;;;16.10;99.90;;;;;;5017609;28;20069;-69
2024/04/05 12:17:24;;;;;;;23.73;21.92;;;16.10;99.90;;;;;;4983300;28;20042;-67
2024/04/05 12:19:50;;;;;;;22.13;20.73;;;16.20;99.90;;;;;;5024524;28;20057;-67
2024/04/05 12:22:16;;;;;;;22.40;20.67;;;16.20;99.90;;;;;;4990117;28;20132;-68
2024/04/05 12:24:46;;;;;;;23.42;21.58;;;16.20;99.90;;;;;;4991479;28;20050;-69
2024/04/05 12:27:13;;;;;;;24.20;22.70;;;16.20;99.90;;;;;;4978881;28;20267;-69
2024/04/05 12:29:39;;;;;;;24.00;22.13;;;16.20;99.90;;;;;;4991230;28;20112;-68